Swiftnes — H9RF — position and weather

sailwx.info

Track history (hours):
 
Tides and Currents Weather Stations Pressure Air Temp Water Temp Dewpoint Dewpoint Depression Visibility Wind Speed Wind Dir Waves Ship Positions

Swiftnes

Last reported at 2017-Dec-19 14:43 UTC. Time now 2018-Jan-22 10:32 UTC.
Position N 09°11' W 079°52'.
Warning: this ship's position is 33 days out of date.

Length 177 m; draft 9.3 m.

Type: Cargo ship. MMSI: 374277000.

Date/timePositionNaut miles runAvg speedWind from/ knotsBaromVisibWave heightAir tempDewpointWater temp
2017-Dec-19 14:43N 09°11' W 079°52'210.9
2017-Dec-19 14:30N 09°12' W 079°54'4 8.2
2017-Dec-19 14:00N 09°15' W 079°55'1 1.9
2017-Dec-19 13:30N 09°16' W 079°55'0 0.7
2017-Dec-19 13:00N 09°17' W 079°55'0 0.5
2017-Dec-19 12:30N 09°17' W 079°55'1 1.7
2017-Dec-19 12:00N 09°18' W 079°55'2 4.3
2017-Dec-19 11:30N 09°20' W 079°55'3 6.6
2017-Dec-19 11:00N 09°23' W 079°55'3 6.0
2017-Dec-19 10:30N 09°26' W 079°55'2 3.5
2017-Dec-19 10:00N 09°27' W 079°57'0 0.3
2017-Dec-19 09:30N 09°27' W 079°57'0 0.0
2017-Dec-19 09:00N 09°27' W 079°57'0 0.0
2017-Dec-19 08:30N 09°27' W 079°57'0 0.0
2017-Dec-19 07:57N 09°27' W 079°57'0 0.0
2017-Dec-19 07:30N 09°27' W 079°57'0 0.0
2017-Dec-19 07:00N 09°27' W 079°57'0 0.0
2017-Dec-19 06:30N 09°27' W 079°57'0 0.0
2017-Dec-19 05:57N 09°27' W 079°57'0 0.0
2017-Dec-19 05:30N 09°27' W 079°57'0 0.0
2017-Dec-19 05:00N 09°27' W 079°57'0 0.0
2017-Dec-19 04:30N 09°27' W 079°57'0 0.0
2017-Dec-19 03:57N 09°27' W 079°57'0 0.0
2017-Dec-19 03:30N 09°27' W 079°57'0 0.0
2017-Dec-19 03:00N 09°27' W 079°57'0 0.0
2017-Dec-19 02:30N 09°27' W 079°57'0 0.0
2017-Dec-19 02:00N 09°27' W 079°57'0 0.0
2017-Dec-19 01:30N 09°27' W 079°57'0 0.0
2017-Dec-19 00:54N 09°27' W 079°57'0 0.0
2017-Dec-19 00:30N 09°27' W 079°57'0 0.0
2017-Dec-19 00:00N 09°27' W 079°57'0 0.0
2017-Dec-18 23:30N 09°27' W 079°57'0 0.0
2017-Dec-18 18:48N 09°27' W 079°57'0 0.0
2017-Dec-18 18:30N 09°27' W 079°57'0 0.0
2017-Dec-18 18:00N 09°27' W 079°57'0 0.0
2017-Dec-18 17:30N 09°27' W 079°57'0 0.0
2017-Dec-18 17:00N 09°27' W 079°57'0 0.0
2017-Dec-18 16:30N 09°27' W 079°57'0 0.0
2017-Dec-18 16:00N 09°27' W 079°57'0 0.0
2017-Dec-18 15:30N 09°27' W 079°57'0 0.0
2017-Dec-18 15:00N 09°27' W 079°57'0 0.0
2017-Dec-18 14:30N 09°27' W 079°57'0 0.0
2017-Dec-18 14:00N 09°27' W 079°57'0 0.0
2017-Dec-18 13:30N 09°27' W 079°57'0 0.0
2017-Dec-18 13:00N 09°27' W 079°57'0 0.0
2017-Dec-18 12:30N 09°27' W 079°57'0 0.0
2017-Dec-18 12:00N 09°27' W 079°57'0 0.0
2017-Dec-18 11:30N 09°27' W 079°57'0 0.0
2017-Dec-18 11:00N 09°27' W 079°57'0 0.0
2017-Dec-18 10:30N 09°27' W 079°57'0 0.0
2017-Dec-18 10:00N 09°27' W 079°57'0 0.0
2017-Dec-18 09:30N 09°27' W 079°57'0 0.0
2017-Dec-18 09:00N 09°27' W 079°57'0 0.0
2017-Dec-18 08:30N 09°27' W 079°57'0 0.0
2017-Dec-18 08:00N 09°27' W 079°57'0 0.0
2017-Dec-18 07:30N 09°27' W 079°57'0 0.0
2017-Dec-18 07:00N 09°27' W 079°57'0 0.0
2017-Dec-18 06:30N 09°27' W 079°57'0 0.0
2017-Dec-18 06:00N 09°27' W 079°57'0 0.0
2017-Dec-18 05:30N 09°27' W 079°57'0 0.0
2017-Dec-18 05:00N 09°27' W 079°57'0 0.0
2017-Dec-18 04:30N 09°27' W 079°57'0 0.0
2017-Dec-18 04:00N 09°27' W 079°57'0 0.0
2017-Dec-18 03:30N 09°27' W 079°57'0 0.0
2017-Dec-18 03:00N 09°27' W 079°57'0 0.0
2017-Dec-18 02:30N 09°27' W 079°57'0 0.0
2017-Dec-18 02:00N 09°27' W 079°57'0 0.1
2017-Dec-18 01:30N 09°27' W 079°57'0 0.2
2017-Dec-18 01:00N 09°27' W 079°57'1 2.3
2017-Dec-18 00:30N 09°28' W 079°56'4 8.0
2017-Dec-18 00:00N 09°31' W 079°53'  
Track history (hours):
 
Tides and Currents Weather Stations Pressure Air Temp Water Temp Dewpoint Dewpoint Depression Visibility Wind Speed Wind Dir Waves Ship Positions

Swiftnes

Last reported at 2017-Dec-19 14:43 UTC. Time now 2018-Jan-22 10:32 UTC.
Position N 09°11' W 079°52'.
Warning: this ship's position is 33 days out of date.

Length 177 m; draft 9.3 m.

Type: Cargo ship. MMSI: 374277000.

Date/timePositionNaut miles runAvg speedWind from/ knotsBaromVisibWave heightAir tempDewpointWater temp
2017-Dec-19 14:43N 09°11' W 079°52'210.9
2017-Dec-19 14:30N 09°12' W 079°54'4 8.2
2017-Dec-19 14:00N 09°15' W 079°55'1 1.9
2017-Dec-19 13:30N 09°16' W 079°55'0 0.7
2017-Dec-19 13:00N 09°17' W 079°55'0 0.5
2017-Dec-19 12:30N 09°17' W 079°55'1 1.7
2017-Dec-19 12:00N 09°18' W 079°55'2 4.3
2017-Dec-19 11:30N 09°20' W 079°55'3 6.6
2017-Dec-19 11:00N 09°23' W 079°55'3 6.0
2017-Dec-19 10:30N 09°26' W 079°55'2 3.5
2017-Dec-19 10:00N 09°27' W 079°57'0 0.3
2017-Dec-19 09:30N 09°27' W 079°57'0 0.0
2017-Dec-19 09:00N 09°27' W 079°57'0 0.0
2017-Dec-19 08:30N 09°27' W 079°57'0 0.0
2017-Dec-19 07:57N 09°27' W 079°57'0 0.0
2017-Dec-19 07:30N 09°27' W 079°57'0 0.0
2017-Dec-19 07:00N 09°27' W 079°57'0 0.0
2017-Dec-19 06:30N 09°27' W 079°57'0 0.0
2017-Dec-19 05:57N 09°27' W 079°57'0 0.0
2017-Dec-19 05:30N 09°27' W 079°57'0 0.0
2017-Dec-19 05:00N 09°27' W 079°57'0 0.0
2017-Dec-19 04:30N 09°27' W 079°57'0 0.0
2017-Dec-19 03:57N 09°27' W 079°57'0 0.0
2017-Dec-19 03:30N 09°27' W 079°57'0 0.0
2017-Dec-19 03:00N 09°27' W 079°57'0 0.0
2017-Dec-19 02:30N 09°27' W 079°57'0 0.0
2017-Dec-19 02:00N 09°27' W 079°57'0 0.0
2017-Dec-19 01:30N 09°27' W 079°57'0 0.0
2017-Dec-19 00:54N 09°27' W 079°57'0 0.0
2017-Dec-19 00:30N 09°27' W 079°57'0 0.0
2017-Dec-19 00:00N 09°27' W 079°57'0 0.0
2017-Dec-18 23:30N 09°27' W 079°57'0 0.0
2017-Dec-18 18:48N 09°27' W 079°57'0 0.0
2017-Dec-18 18:30N 09°27' W 079°57'0 0.0
2017-Dec-18 18:00N 09°27' W 079°57'0 0.0
2017-Dec-18 17:30N 09°27' W 079°57'0 0.0
2017-Dec-18 17:00N 09°27' W 079°57'0 0.0
2017-Dec-18 16:30N 09°27' W 079°57'0 0.0
2017-Dec-18 16:00N 09°27' W 079°57'0 0.0
2017-Dec-18 15:30N 09°27' W 079°57'0 0.0
2017-Dec-18 15:00N 09°27' W 079°57'0 0.0
2017-Dec-18 14:30N 09°27' W 079°57'0 0.0
2017-Dec-18 14:00N 09°27' W 079°57'0 0.0
2017-Dec-18 13:30N 09°27' W 079°57'0 0.0
2017-Dec-18 13:00N 09°27' W 079°57'0 0.0
2017-Dec-18 12:30N 09°27' W 079°57'0 0.0
2017-Dec-18 12:00N 09°27' W 079°57'0 0.0
2017-Dec-18 11:30N 09°27' W 079°57'0 0.0
2017-Dec-18 11:00N 09°27' W 079°57'0 0.0
2017-Dec-18 10:30N 09°27' W 079°57'0 0.0
2017-Dec-18 10:00N 09°27' W 079°57'0 0.0
2017-Dec-18 09:30N 09°27' W 079°57'0 0.0
2017-Dec-18 09:00N 09°27' W 079°57'0 0.0
2017-Dec-18 08:30N 09°27' W 079°57'0 0.0
2017-Dec-18 08:00N 09°27' W 079°57'0 0.0
2017-Dec-18 07:30N 09°27' W 079°57'0 0.0
2017-Dec-18 07:00N 09°27' W 079°57'0 0.0
2017-Dec-18 06:30N 09°27' W 079°57'0 0.0
2017-Dec-18 06:00N 09°27' W 079°57'0 0.0
2017-Dec-18 05:30N 09°27' W 079°57'0 0.0
2017-Dec-18 05:00N 09°27' W 079°57'0 0.0
2017-Dec-18 04:30N 09°27' W 079°57'0 0.0
2017-Dec-18 04:00N 09°27' W 079°57'0 0.0
2017-Dec-18 03:30N 09°27' W 079°57'0 0.0
2017-Dec-18 03:00N 09°27' W 079°57'0 0.0
2017-Dec-18 02:30N 09°27' W 079°57'0 0.0
2017-Dec-18 02:00N 09°27' W 079°57'0 0.1
2017-Dec-18 01:30N 09°27' W 079°57'0 0.2
2017-Dec-18 01:00N 09°27' W 079°57'1 2.3
2017-Dec-18 00:30N 09°28' W 079°56'4 8.0
2017-Dec-18 00:00N 09°31' W 079°53'  

Dump ship's entire track history